Time;durP1;ratioP1;P1;durP2;ratioP2;P2;SDS_P1;SDS_P2;PMS_P1;PMS_P2;Temp;Humidity;BMP_temperature;BMP_pressure;BME280_temperature;BME280_humidity;BME280_pressure;Samples;Min_cycle;Max_cycle;Signal;HPM_P1;HPM_P2
2022/03/16 00:00:01;;;;;;;16.75;8.20;;;1.90;99.90;;;;;;5055798;28;20079;-70
2022/03/16 00:02:26;;;;;;;19.25;9.13;;;1.90;99.90;;;;;;5067299;28;20047;-70
2022/03/16 00:04:58;;;;;;;14.43;8.05;;;1.90;99.90;;;;;;5059519;28;20132;-71
2022/03/16 00:07:26;;;;;;;20.15;9.07;;;1.80;99.90;;;;;;5059321;28;20037;-70
2022/03/16 00:09:52;;;;;;;17.98;9.35;;;1.80;99.90;;;;;;5060016;28;20047;-70
2022/03/16 00:12:29;;;;;;;14.45;7.72;;;1.80;99.90;;;;;;5060574;28;20044;-71
2022/03/16 00:14:57;;;;;;;19.13;9.13;;;1.80;99.90;;;;;;5059773;28;20033;-70
2022/03/16 00:17:25;;;;;;;18.13;8.23;;;1.80;99.90;;;;;;5055748;28;20126;-71
2022/03/16 00:20:04;;;;;;;14.20;7.70;;;1.80;99.90;;;;;;5047304;28;20048;-71
2022/03/16 00:22:30;;;;;;;20.25;8.30;;;1.80;99.90;;;;;;5046934;28;20045;-71
2022/03/16 00:25:07;;;;;;;21.40;8.90;;;1.70;99.90;;;;;;5045014;28;20044;-71
2022/03/16 00:27:45;;;;;;;15.95;8.27;;;1.70;99.90;;;;;;5047391;28;20041;-71
2022/03/16 00:30:28;;;;;;;15.10;8.95;;;1.60;99.90;;;;;;5046512;28;20060;-71
2022/03/16 00:32:54;;;;;;;14.73;8.13;;;1.70;99.90;;;;;;5045719;28;20029;-71
2022/03/16 00:35:23;;;;;;;27.65;9.25;;;1.70;99.90;;;;;;5046422;28;20115;-71
2022/03/16 00:37:58;;;;;;;20.05;9.93;;;1.70;99.90;;;;;;5048670;28;20491;-71
2022/03/16 00:40:24;;;;;;;17.00;8.15;;;;;;;;;;5047397;28;20045;-71
2022/03/16 00:42:53;;;;;;;16.17;8.70;;;;;;;;;;5054168;28;20032;-70
2022/03/16 00:45:19;;;;;;;19.23;8.98;;;;;;;;;;5062771;28;20036;-70
2022/03/16 00:47:50;;;;;;;17.50;8.70;;;;;;;;;;5061911;28;20167;-70
2022/03/16 00:50:19;;;;;;;18.00;8.70;;;;;;;;;;5045924;28;20041;-70
2022/03/16 00:52:47;;;;;;;19.38;9.90;;;;;;;;;;5047820;28;20049;-71
2022/03/16 00:55:13;;;;;;;22.40;8.88;;;;;;;;;;5044696;28;20043;-71
2022/03/16 00:57:46;;;;;;;50.47;9.98;;;;;;;;;;5050303;28;20093;-70
2022/03/16 01:00:21;;;;;;;24.65;9.57;;;;;;;;;;5066430;28;20127;-70
2022/03/16 01:02:47;;;;;;;36.80;8.98;;;;;;;;;;5049286;28;20041;-71
2022/03/16 01:05:13;;;;;;;24.58;9.32;;;;;;;;;;5044980;28;20048;-70
2022/03/16 01:07:41;;;;;;;20.08;8.85;;;;;;;;;;5051990;23;20395;-70
2022/03/16 01:10:10;;;;;;;16.45;8.07;;;;;;;;;;5045669;28;20112;-71
2022/03/16 01:12:39;;;;;;;19.98;7.80;;;;;;;;;;5026753;28;20091;-71
2022/03/16 01:15:08;;;;;;;14.68;8.30;;;;;;;;;;5045152;28;20041;-69
2022/03/16 01:17:34;;;;;;;18.65;9.25;;;;;;;;;;5028448;28;20041;-70
2022/03/16 01:20:06;;;;;;;15.15;8.27;;;;;;;;;;5025444;28;20547;-71
2022/03/16 01:22:32;;;;;;;20.52;9.40;;;;;;;;;;5026737;28;20034;-71
2022/03/16 01:25:12;;;;;;;18.80;8.88;;;;;;;;;;5045156;28;20041;-70
2022/03/16 01:27:47;;;;;;;17.05;8.52;;;;;;;;;;5046237;28;20523;-71
2022/03/16 01:30:13;;;;;;;17.85;9.15;;;;;;;;;;5024582;28;20359;-71
2022/03/16 01:32:42;;;;;;;17.17;9.05;;;;;;;;;;5026062;28;20121;-71
2022/03/16 01:35:09;;;;;;;18.98;9.65;;;;;;;;;;5042702;28;20044;-71
2022/03/16 01:37:35;;;;;;;21.00;9.15;;;;;;;;;;5038145;28;20753;-71
2022/03/16 01:40:02;;;;;;;17.75;9.55;;;;;;;;;;5019093;28;20089;-71
2022/03/16 01:42:28;;;;;;;17.25;7.90;;;;;;;;;;4988522;28;20061;-71
2022/03/16 01:44:57;;;;;;;17.35;7.95;;;;;;;;;;5032172;28;20037;-71
2022/03/16 01:47:24;;;;;;;19.95;8.50;;;;;;;;;;5044474;28;20070;-71
2022/03/16 01:49:52;;;;;;;21.10;9.45;;;;;;;;;;5031235;28;20112;-72
2022/03/16 01:52:19;;;;;;;19.75;8.82;;;;;;;;;;5024107;28;20041;-72
2022/03/16 01:54:45;;;;;;;17.55;8.40;;;;;;;;;;5023525;28;20061;-70
2022/03/16 01:57:12;;;;;;;18.75;9.32;;;;;;;;;;5025371;28;20042;-70
2022/03/16 01:59:38;;;;;;;14.85;8.20;;;;;;;;;;5036060;28;20044;-70
2022/03/16 02:02:05;;;;;;;18.70;8.43;;;;;;;;;;5042329;28;20700;-70
2022/03/16 02:04:31;;;;;;;15.30;8.43;;;;;;;;;;5034418;28;20056;-70
2022/03/16 02:06:58;;;;;;;17.85;8.10;;;;;;;;;;5025050;28;20718;-70
2022/03/16 02:09:24;;;;;;;19.73;8.00;;;;;;;;;;5008737;28;20049;-70
2022/03/16 02:11:50;;;;;;;21.40;8.98;;;;;;;;;;5023053;28;20743;-69
2022/03/16 02:14:17;;;;;;;25.10;10.15;;;;;;;;;;5011866;28;20117;-70
2022/03/16 02:16:47;;;;;;;19.63;9.15;;;;;;;;;;5025442;28;20045;-70
2022/03/16 02:19:14;;;;;;;21.85;9.85;;;;;;;;;;5039921;28;20142;-70
2022/03/16 02:21:40;;;;;;;16.58;8.38;;;;;;;;;;5023969;28;20755;-70
2022/03/16 02:24:07;;;;;;;18.58;8.57;;;;;;;;;;5027016;28;20047;-69
2022/03/16 02:26:33;;;;;;;26.35;9.70;;;;;;;;;;5043859;28;20045;-70
2022/03/16 02:29:00;;;;;;;28.55;9.38;;;;;;;;;;5042789;28;20114;-69
2022/03/16 02:31:26;;;;;;;26.45;10.10;;;;;;;;;;5022280;28;20048;-70
2022/03/16 02:33:53;;;;;;;17.38;8.68;;;;;;;;;;5022791;28;20041;-73
2022/03/16 02:36:19;;;;;;;20.38;10.32;;;;;;;;;;5043645;28;20041;-70
2022/03/16 02:38:46;;;;;;;27.20;9.32;;;;;;;;;;5021413;28;20037;-70
2022/03/16 02:41:12;;;;;;;21.35;9.65;;;;;;;;;;5021102;28;20029;-70
2022/03/16 02:43:38;;;;;;;20.55;9.48;;;;;;;;;;5006018;28;20110;-70
2022/03/16 02:46:04;;;;;;;25.40;9.27;;;;;;;;;;5038556;28;20685;-69
2022/03/16 02:48:30;;;;;;;18.58;8.32;;;;;;;;;;5040793;28;20045;-70
2022/03/16 02:50:56;;;;;;;19.73;9.52;;;;;;;;;;5028541;28;20178;-70
2022/03/16 02:53:22;;;;;;;19.67;9.35;;;;;;;;;;5022169;28;20029;-70
2022/03/16 02:55:49;;;;;;;27.95;10.02;;;;;;;;;;5016285;28;20053;-68
2022/03/16 02:58:15;;;;;;;20.98;9.23;;;;;;;;;;5023406;28;20048;-70
2022/03/16 03:00:42;;;;;;;28.95;11.00;;;;;;;;;;5033368;28;20069;-67
2022/03/16 03:03:08;;;;;;;25.95;10.60;;;;;;;;;;5043498;28;20638;-68
2022/03/16 03:05:34;;;;;;;24.77;10.05;;;;;;;;;;5033187;28;20128;-69
2022/03/16 03:08:00;;;;;;;21.63;10.25;;;;;;;;;;5014621;28;20041;-70
2022/03/16 03:10:27;;;;;;;20.05;9.85;;;;;;;;;;5002246;28;20038;-69
2022/03/16 03:12:53;;;;;;;26.70;10.40;;;;;;;;;;5001687;28;20083;-70
2022/03/16 03:15:19;;;;;;;19.17;9.57;;;;;;;;;;5014036;28;20036;-70
2022/03/16 03:17:46;;;;;;;17.73;9.13;;;;;;;;;;5043932;28;20045;-70
2022/03/16 03:20:12;;;;;;;21.27;10.35;;;;;;;;;;5038466;28;20120;-70
2022/03/16 03:22:39;;;;;;;30.75;10.48;;;;;;;;;;5023583;28;20041;-69
2022/03/16 03:25:05;;;;;;;21.35;10.15;;;;;;;;;;5025857;28;20191;-68
2022/03/16 03:27:32;;;;;;;25.85;9.63;;;;;;;;;;5025144;28;20040;-69
2022/03/16 03:29:58;;;;;;;20.63;10.13;;;;;;;;;;5041374;28;20045;-70
2022/03/16 03:32:24;;;;;;;20.67;9.85;;;;;;;;;;5023034;28;20112;-70
2022/03/16 03:34:51;;;;;;;21.75;10.40;;;;;;;;;;5023171;28;20053;-70
2022/03/16 03:37:20;;;;;;;20.17;9.85;;;;;;;;;;5019829;28;20037;-69
2022/03/16 03:39:46;;;;;;;24.90;11.07;;;;;;;;;;5015737;28;20489;-70
2022/03/16 03:42:13;;;;;;;24.17;10.43;;;;;;;;;;5039132;28;20068;-71
2022/03/16 03:44:39;;;;;;;23.52;10.27;;;;;;;;;;5024357;28;20065;-70
2022/03/16 03:47:06;;;;;;;24.77;11.35;;;;;;;;;;5023521;28;20045;-70
2022/03/16 03:49:36;;;;;;;24.77;11.60;;;;;;;;;;5008708;28;20033;-70
2022/03/16 03:52:02;;;;;;;25.05;11.35;;;;;;;;;;5013349;28;20108;-70
2022/03/16 03:54:29;;;;;;;27.35;12.40;;;;;;;;;;5019438;28;20033;-70
2022/03/16 03:56:55;;;;;;;25.35;10.55;;;;;;;;;;5033645;28;20045;-70
2022/03/16 03:59:21;;;;;;;29.75;12.98;;;;;;;;;;5026020;28;20037;-71
2022/03/16 04:01:47;;;;;;;26.25;11.10;;;;;;;;;;5033286;28;20041;-70
2022/03/16 04:04:13;;;;;;;23.98;11.48;;;;;;;;;;5027081;28;20053;-70
2022/03/16 04:06:39;;;;;;;24.23;11.20;;;;;;;;;;5015674;28;20033;-70
2022/03/16 04:09:05;;;;;;;29.48;11.70;;;;;;;;;;5015168;28;20108;-70
2022/03/16 04:11:32;;;;;;;26.17;11.95;;;;;;;;;;5035543;28;20481;-71
2022/03/16 04:13:58;;;;;;;36.38;13.82;;;;;;;;;;5045784;28;20600;-70
2022/03/16 04:16:24;;;;;;;31.38;12.32;;;;;;;;;;5040466;28;20045;-70
2022/03/16 04:18:50;;;;;;;34.10;13.68;;;;;;;;;;5024835;28;20041;-70
2022/03/16 04:21:16;;;;;;;28.50;12.90;;;;;;;;;;5028052;28;20532;-70
2022/03/16 04:23:42;;;;;;;28.40;11.48;;;;;;;;;;5026568;28;20044;-70
2022/03/16 04:26:09;;;;;;;33.55;12.77;;;;;;;;;;5029087;28;20044;-70
2022/03/16 04:28:35;;;;;;;34.35;15.20;;;;;;;;;;5046016;28;20132;-70
2022/03/16 04:31:01;;;;;;;29.75;12.88;;;;;;;;;;5026254;28;20082;-70
2022/03/16 04:33:27;;;;;;;40.22;14.35;;;;;;;;;;5026343;28;20045;-70
2022/03/16 04:35:54;;;;;;;32.92;12.85;;;;;;;;;;5026170;28;20041;-70
2022/03/16 04:38:20;;;;;;;31.23;14.45;;;;;;;;;;5028525;28;20045;-70
2022/03/16 04:40:46;;;;;;;30.38;14.73;;;;;;;;;;5026245;28;20571;-70
2022/03/16 04:43:12;;;;;;;29.17;13.70;;;;;;;;;;5043280;28;20037;-71
2022/03/16 04:45:39;;;;;;;33.80;16.40;;;;;;;;;;5045882;28;20049;-70
2022/03/16 04:48:09;;;;;;;35.80;16.98;;;;;;;;;;5029714;28;20072;-70
2022/03/16 04:50:36;;;;;;;33.80;14.73;;;;;;;;;;5028010;28;20057;-70
2022/03/16 04:53:02;;;;;;;29.80;14.95;;;;;;;;;;5041261;28;20044;-70
2022/03/16 04:55:28;;;;;;;34.05;16.70;;;;;;;;;;5025918;28;20124;-70
2022/03/16 04:57:54;;;;;;;32.53;16.50;;;;;;;;;;5039072;28;20607;-70
2022/03/16 05:00:20;;;;;;;38.15;16.90;;;;;;;;;;5045421;28;20663;-71
2022/03/16 05:02:47;;;;;;;36.03;17.20;;;;;;;;;;5019330;28;20037;-70
2022/03/16 05:05:13;;;;;;;31.08;16.25;;;;;;;;;;5003834;28;20040;-70
2022/03/16 05:07:42;;;;;;;36.85;16.20;;;;;;;;;;5018589;28;20491;-70
2022/03/16 05:10:09;;;;;;;39.28;18.02;;;;;;;;;;5013534;28;20095;-71
2022/03/16 05:12:42;;;;;;;39.55;18.40;;;;;;;;;;5021349;28;20041;-69
2022/03/16 05:15:10;;;;;;;46.53;18.63;;;;;;;;;;5023815;28;20033;-70
2022/03/16 05:17:37;;;;;;;33.30;17.38;;;;;;;;;;5032707;28;20153;-70
2022/03/16 05:20:03;;;;;;;36.90;16.83;;;;;;;;;;5011757;28;20445;-70
2022/03/16 05:22:29;;;;;;;41.60;19.77;;;;;;;;;;5014302;28;20041;-71
2022/03/16 05:24:55;;;;;;;41.03;19.55;;;;;;;;;;5005058;28;20048;-69
2022/03/16 05:27:21;;;;;;;35.47;16.98;;;;;;;;;;5023310;28;20072;-70
2022/03/16 05:29:48;;;;;;;40.67;18.95;;;;;;;;;;5010525;28;20100;-69
2022/03/16 05:32:14;;;;;;;40.00;18.67;;;;;;;;;;5019400;28;20037;-69
2022/03/16 05:34:40;;;;;;;41.20;18.60;;;;;;;;;;5005460;28;20050;-69
2022/03/16 05:37:06;;;;;;;46.58;19.63;;;;;;;;;;5009895;28;20037;-69
2022/03/16 05:39:33;;;;;;;40.35;19.17;;;;;;;;;;5013490;28;20042;-70
2022/03/16 05:42:02;;;;;;;37.47;18.38;;;;;;;;;;5002675;28;20125;-70
2022/03/16 05:44:28;;;;;;;37.92;18.13;;;;;;;;;;5023392;28;20029;-70
2022/03/16 05:46:57;;;;;;;42.75;19.15;;;;;;;;;;5040097;28;20040;-71
2022/03/16 05:49:25;;;;;;;40.97;17.98;;;;;;;;;;5028769;28;20578;-69
2022/03/16 05:51:51;;;;;;;37.88;18.42;;;;;;;;;;5025471;28;20033;-71
2022/03/16 05:54:17;;;;;;;38.08;17.60;;;;;;;;;;5016099;28;21713;-69
2022/03/16 05:56:43;;;;;;;36.60;16.20;;;;;;;;;;5022315;28;20087;-71
2022/03/16 05:59:09;;;;;;;36.83;17.90;;;;;;;;;;5027900;28;20383;-70
2022/03/16 06:01:35;;;;;;;40.38;19.70;;;;;;;;;;5002988;28;20054;-69
2022/03/16 06:04:01;;;;;;;41.63;20.23;;;;;;;;;;5019830;28;20052;-69
2022/03/16 06:06:29;;;;;;;41.85;21.40;;;;;;;;;;5022440;28;20037;-69
2022/03/16 06:08:55;;;;;;;42.00;21.02;;;;;;;;;;5024162;28;20041;-69
2022/03/16 06:11:21;;;;;;;42.08;20.52;;;;;;;;;;5005751;28;20046;-69
2022/03/16 06:13:47;;;;;;;42.78;20.67;;;;;;;;;;5023501;28;20118;-69
2022/03/16 06:16:13;;;;;;;47.97;22.15;;;;;;;;;;5023775;28;20040;-69
2022/03/16 06:18:39;;;;;;;38.58;20.05;;;;;;;;;;5034556;28;20053;-69
2022/03/16 06:21:05;;;;;;;45.38;21.95;;;;;;;;;;5006349;28;20129;-69
2022/03/16 06:23:31;;;;;;;45.67;20.45;;;;;;;;;;5012422;28;20041;-69
2022/03/16 06:25:57;;;;;;;48.67;22.27;;;;;;;;;;5023941;28;20045;-69
2022/03/16 06:28:23;;;;;;;46.53;21.15;;;;;;;;;;5018805;28;20496;-69
2022/03/16 06:30:49;;;;;;;46.83;21.88;;;;;;;;;;5023125;28;20033;-69
2022/03/16 06:33:17;;;;;;;41.15;22.25;;;;;;;;;;5040001;28;20445;-69
2022/03/16 06:35:43;;;;;;;40.50;20.83;;;;;;;;;;5023574;28;20040;-69
2022/03/16 06:38:09;;;;;;;41.75;19.73;;;;;;;;;;5018063;28;20493;-69
2022/03/16 06:40:35;;;;;;;58.97;21.83;;;;;;;;;;5012779;28;20049;-69
2022/03/16 06:43:01;;;;;;;48.70;21.23;;;;;;;;;;5004728;28;20041;-69
2022/03/16 06:45:28;;;;;;;46.35;22.20;;;;;;;;;;5033134;28;20046;-69
2022/03/16 06:47:55;;;;;;;41.15;20.30;;;;;;;;;;5024323;28;20048;-69
2022/03/16 06:50:22;;;;;;;38.45;17.85;;;;;;;;;;5023940;28;20037;-69
2022/03/16 06:52:48;;;;;;;40.17;20.38;;;;;;;;;;5024336;28;20041;-70
2022/03/16 06:55:14;;;;;;;41.67;21.13;;;;;;;;;;5022365;28;20053;-69
2022/03/16 06:57:40;;;;;;;40.35;21.15;;;;;;;;;;5024506;28;20100;-69
2022/03/16 07:00:08;;;;;;;40.13;19.00;;;;;;;;;;5022520;28;20041;-69
2022/03/16 07:02:49;;;;;;;38.00;19.38;;;;;;;;;;5041013;28;20512;-69
2022/03/16 07:05:15;;;;;;;40.30;20.08;;;;;;;;;;5027452;28;20413;-69
2022/03/16 07:07:41;;;;;;;39.50;20.38;;;;;;;;;;5023391;28;20033;-70
2022/03/16 07:10:07;;;;;;;42.58;19.35;;;;;;;;;;5026776;28;20662;-70
2022/03/16 07:12:33;;;;;;;37.15;19.65;;;;;;;;;;5022922;28;20037;-69
2022/03/16 07:14:59;;;;;;;;;;;;;;;;;;5036022;28;20055;-70
2022/03/16 07:17:25;;;;;;;33.60;16.15;;;;;;;;;;5044040;28;19939;-68
2022/03/16 07:19:51;;;;;;;27.73;15.30;;;;;;;;;;5033201;28;20045;-68
2022/03/16 07:22:17;;;;;;;27.70;15.65;;;;;;;;;;5023762;28;20037;-68
2022/03/16 07:24:43;;;;;;;31.80;16.45;;;;;;;;;;5031700;28;20040;-69
2022/03/16 07:27:11;;;;;;;32.17;16.20;;;;;;;;;;5044216;28;20844;-69
2022/03/16 07:29:38;;;;;;;29.08;14.52;;;;;;;;;;5026761;28;20537;-70
2022/03/16 07:32:04;;;;;;;29.00;15.15;;;;;;;;;;5026784;28;20105;-69
2022/03/16 07:34:30;;;;;;;28.98;14.73;;;;;;;;;;5029627;28;20119;-69
2022/03/16 07:36:56;;;;;;;26.23;14.63;;;;;;;;;;5044760;28;20106;-69
2022/03/16 07:39:22;;;;;;;31.77;14.63;;;;;;;;;;5022886;28;20589;-69
2022/03/16 07:41:48;;;;;;;;;;;;;;;;;;5027798;28;20048;-68
2022/03/16 07:44:15;;;;;;;25.65;12.68;;;;;;;;;;5029040;28;19917;-69
2022/03/16 07:46:41;;;;;;;29.50;13.05;;;;;;;;;;5048142;28;20076;-69
2022/03/16 07:49:07;;;;;;;28.35;12.52;;;;;;;;;;5047207;28;20037;-69
2022/03/16 07:51:33;;;;;;;21.45;12.20;;;;;;;;;;5027571;28;20041;-69
2022/03/16 07:53:59;;;;;;;;;;;;;;;;;;5029392;28;20533;-69
2022/03/16 07:56:25;;;;;;;34.78;13.15;;;;;;;;;;5045556;28;19921;-69
2022/03/16 07:58:51;;;;;;;22.75;12.18;;;;;;;;;;5029746;28;20413;-69
2022/03/16 08:01:17;;;;;;;;;;;;;;;;;;5029865;28;20091;-69
2022/03/16 08:03:43;;;;;;;21.88;12.15;;;;;;;;;;5026948;28;20308;-69
2022/03/16 08:06:09;;;;;;;25.85;13.05;;;;;;;;;;5041474;28;20497;-69
2022/03/16 08:08:39;;;;;;;30.13;12.60;;;;;;;;;;5027383;28;20104;-69
2022/03/16 08:11:08;;;;;;;24.73;13.32;;;;;;;;;;5036644;28;20524;-69
2022/03/16 08:13:37;;;;;;;25.17;12.90;;;;;;;;;;5046561;28;20223;-69
2022/03/16 08:16:04;;;;;;;21.80;11.60;;;;;;;;;;5033872;28;20053;-69
2022/03/16 08:18:31;;;;;;;26.45;13.05;;;;;;;;;;5026864;28;20088;-68
2022/03/16 08:20:57;;;;;;;24.80;13.00;;;;;;;;;;5037650;28;20071;-68
2022/03/16 08:23:23;;;;;;;21.23;12.63;;;;;;;;;;5046396;28;20571;-69
2022/03/16 08:25:50;;;;;;;25.27;13.77;;;;;;;;;;5036765;28;20061;-69
2022/03/16 08:28:15;;;;;;;;;;;;;;;;;;5027585;28;20071;-68
2022/03/16 08:30:42;;;;;;;27.02;14.43;;;;;;;;;;5033629;28;19919;-69
2022/03/16 08:33:08;;;;;;;27.52;15.25;;;;;;;;;;5047304;28;20037;-69
2022/03/16 08:35:34;;;;;;;31.65;14.73;;;;;;;;;;5026701;28;20103;-68
2022/03/16 08:38:00;;;;;;;30.88;17.15;;;;;;;;;;5022188;28;20481;-68
2022/03/16 08:40:26;;;;;;;;;;;;;;;;;;5027304;28;20053;-68
2022/03/16 08:42:52;;;;;;;29.38;15.65;;;;;;;;;;5016626;28;19975;-68
2022/03/16 08:45:18;;;;;;;;;;;;;;;;;;5026542;28;20132;-68
2022/03/16 08:47:44;;;;;;;31.45;16.88;;;;;;;;;;5025771;28;20012;-68
2022/03/16 08:50:10;;;;;;;32.92;17.10;;;;;;;;;;5025954;28;20124;-69
2022/03/16 08:52:37;;;;;;;35.70;18.02;;;;;;;;;;5024264;28;20100;-68
2022/03/16 08:55:05;;;;;;;34.05;18.35;;;;;;;;;;5016177;28;20036;-68
2022/03/16 08:57:31;;;;;;;32.25;16.90;;;;;;;;;;5027017;28;20042;-68
2022/03/16 08:59:57;;;;;;;45.20;21.33;;;;;;;;;;5025759;28;20068;-68
2022/03/16 09:02:23;;;;;;;;;;;;;;;;;;5026569;28;20043;-68
2022/03/16 09:04:50;;;;;;;35.95;20.17;;;;;;;;;;5025531;28;19928;-68
2022/03/16 09:07:17;;;;;;;41.50;20.50;;;;;;;;;;5036128;28;20059;-68
2022/03/16 09:09:43;;;;;;;39.95;20.08;;;;;;;;;;5018017;28;20041;-68
2022/03/16 09:12:11;;;;;;;32.10;18.27;;;;;;;;;;5040036;28;20048;-68
2022/03/16 09:14:38;;;;;;;38.47;19.92;;;;;;;;;;5028240;28;20124;-68
2022/03/16 09:17:04;;;;;;;37.97;20.42;;;;;;;;;;5032981;28;20045;-68
2022/03/16 09:19:30;;;;;;;34.47;19.85;;;;;;;;;;5025863;28;20041;-69
2022/03/16 09:22:00;;;;;;;43.13;20.02;;;;;;;;;;5027792;28;20048;-68
2022/03/16 09:24:26;;;;;;;38.72;20.92;;;;;;;;;;5045719;28;20607;-68
2022/03/16 09:26:54;;;;;;;36.00;18.83;;;;;;;;;;5036408;28;20077;-70
2022/03/16 09:29:20;;;;;;;35.92;19.60;;;;;;;;;;5026391;28;20050;-68
2022/03/16 09:31:46;;;;;;;;;;;;;;;;;;5033596;28;20742;-68
2022/03/16 09:34:12;;;;;;;39.05;20.05;;;;;;;;;;5041374;28;19921;-68
2022/03/16 09:36:42;;;;;;;34.13;19.23;;;;;;;;;;5024100;28;20097;-68
2022/03/16 09:39:08;;;;;;;37.95;20.80;;;;;;;;;;5014394;28;20960;-68
2022/03/16 09:41:36;;;;;;;34.25;19.90;;;;;;;;;;5012533;28;20061;-70
2022/03/16 09:44:03;;;;;;;40.15;21.27;;;;;;;;;;5011345;28;20029;-70
2022/03/16 09:46:33;;;;;;;38.58;20.85;;;;;;;;;;5013056;28;20048;-69
2022/03/16 09:48:59;;;;;;;41.30;20.80;;;;;;;;;;5044576;28;20932;-68
2022/03/16 09:51:26;;;;;;;35.10;21.05;;;;;;;;;;5023144;28;20033;-69
2022/03/16 09:53:53;;;;;;;40.20;22.05;;;;;;;;;;5019560;28;20049;-68
2022/03/16 09:56:20;;;;;;;37.90;21.95;;;;;;;;;;5020786;28;20525;-68
2022/03/16 09:58:46;;;;;;;38.80;20.77;;;;;;;;;;5014332;28;20045;-68
2022/03/16 10:01:12;;;;;;;38.88;20.70;;;;;;;;;;4996320;28;20045;-69
2022/03/16 10:03:40;;;;;;;35.83;19.45;;;;;;;;;;5019598;28;20048;-69
2022/03/16 10:06:07;;;;;;;39.22;21.35;;;;;;;;;;5014827;28;20056;-68
2022/03/16 10:08:34;;;;;;;38.30;21.80;;;;;;;;;;5020915;28;20045;-66
2022/03/16 10:14:06;;;;;;;42.35;21.35;;;;;;;;;;5016081;28;20037;-69
2022/03/16 10:17:43;;;;;;;34.58;19.30;;;;;;;;;;4999585;28;20041;-68
2022/03/16 10:19:22;;;;;;;42.13;20.42;;;;;;;;;;5015093;28;20046;-69
2022/03/16 10:22:01;;;;;;;40.38;21.15;;;;;;;;;;5015379;28;20041;-69
2022/03/16 10:24:31;;;;;;;43.35;20.88;;;;;;;;;;5013653;28;20101;-67
2022/03/16 10:26:58;;;;;;;39.55;20.38;;;;;;;;;;5016247;28;20442;-69
2022/03/16 10:29:26;;;;;;;40.28;21.35;;;;;;;;;;5015145;28;20120;-69
2022/03/16 10:32:02;;;;;;;35.83;20.00;;;;;;;;;;5001604;28;20038;-67
2022/03/16 10:34:28;;;;;;;37.72;20.48;;;;;;;;;;5021822;28;20045;-68
2022/03/16 10:36:54;;;;;;;37.38;19.88;;;;;;;;;;5023642;28;20103;-68
2022/03/16 10:39:32;;;;;;;35.53;21.00;;;;;;;;;;5024103;28;20541;-67
2022/03/16 10:47:49;;;;;;;34.90;18.77;;;;;;;;;;5022285;28;20065;-69
2022/03/16 10:50:15;;;;;;;32.33;18.73;;;;;;;;;;5024145;28;20725;-68
2022/03/16 10:52:42;;;;;;;33.17;18.83;;;;;;;;;;5024163;28;20757;-69
2022/03/16 10:55:08;;;;;;;34.08;18.00;;;;;;;;;;5023542;28;20445;-69
2022/03/16 10:57:34;;;;;;;30.92;17.75;;;;;;;;;;5023885;28;20046;-68
2022/03/16 11:00:02;;;;;;;29.38;18.30;;;;;;;;;;5020897;28;20038;-66
2022/03/16 11:02:34;;;;;;;32.67;18.30;;;;;;;;;;5022112;28;20120;-69
2022/03/16 11:05:00;;;;;;;34.50;17.92;;;;;;;;;;5020361;28;20048;-67
2022/03/16 11:07:27;;;;;;;37.03;18.67;;;;;;;;;;5023411;28;20128;-69
2022/03/16 11:09:53;;;;;;;31.15;17.20;;;;;;;;;;5023966;28;20041;-66
2022/03/16 11:15:05;;;;;;;30.58;17.08;;;;;;;;;;5022851;28;19956;-69
2022/03/16 11:17:31;;;;;;;29.58;17.45;;;;;;;;;;5022755;28;20713;-69
2022/03/16 11:19:59;;;;;;;35.38;16.38;;;;;;;;;;5022483;28;20034;-69
2022/03/16 11:22:28;;;;;;;33.85;17.38;;;;;;;;;;5023417;28;20057;-68
2022/03/16 11:24:59;;;;;;;28.08;16.63;;;;;;;;;;5022832;28;20038;-68
2022/03/16 11:27:26;;;;;;;26.90;16.05;;;;;;;;;;5023793;28;20127;-69
2022/03/16 11:30:08;;;;;;;35.35;17.67;;;;;;;;;;5023352;28;20120;-69
2022/03/16 11:32:36;;;;;;;34.13;17.30;;;;;;;;;;5021019;28;20072;-70
2022/03/16 11:35:03;;;;;;;34.00;18.00;;;;;;;;;;5022893;28;20127;-68
2022/03/16 11:37:37;;;;;;;28.60;16.13;;;;;;;;;;5022729;28;20041;-69
2022/03/16 11:40:09;;;;;;;27.98;16.98;;;;;;;;;;5022991;28;20144;-69
2022/03/16 11:42:36;;;;;;;29.13;18.00;;;;;;;;;;5023598;28;20042;-68
2022/03/16 11:45:22;;;;;;;29.50;17.33;;;;;;;;;;5021887;28;20041;-67
2022/03/16 11:47:48;;;;;;;27.08;16.85;;;;;;;;;;5020871;28;20851;-69
2022/03/16 11:50:14;;;;;;;;;;;;;;;;;;5023576;28;20042;-69
2022/03/16 11:53:14;;;;;;;35.17;17.92;;;;;;;;;;5022560;28;19921;-69
2022/03/16 11:55:42;;;;;;;35.38;18.27;;;;;;;;;;5008337;28;20045;-70
2022/03/16 11:58:25;;;;;;;35.13;19.08;;;;;;;;;;5020135;28;20060;-69
2022/03/16 12:00:52;;;;;;;33.60;17.77;;;;;;;;;;5019559;28;20082;-71
2022/03/16 12:03:21;;;;;;;29.40;17.92;;;;;;;;;;5023485;28;20063;-67
2022/03/16 12:06:07;;;;;;;31.33;18.02;;;;;;;;;;5020156;28;20040;-69
2022/03/16 12:08:50;;;;;;;28.92;16.58;;;;;;;;;;5020652;28;20161;-68
2022/03/16 12:14:05;;;;;;;35.15;19.35;;;;;;;;;;5022419;28;20072;-70
2022/03/16 12:16:40;;;;;;;36.47;18.92;;;;;;;;;;5024513;28;20772;-68
2022/03/16 12:19:27;;;;;;;34.40;19.15;;;;;;;;;;5026323;28;20045;-70
2022/03/16 12:21:54;;;;;;;42.15;19.38;;;;;;;;;;5021636;28;20072;-71
2022/03/16 12:30:04;;;;;;;34.33;19.75;;;;;;;;;;5025638;28;20041;-70
2022/03/16 12:32:35;;;;;;;43.55;21.67;;;;;;;;;;5026581;28;20037;-70
2022/03/16 12:35:02;;;;;;;33.47;19.60;;;;;;;;;;5009215;28;20038;-70
2022/03/16 12:37:28;;;;;;;36.25;19.83;;;;;;;;;;5026280;28;20072;-70
2022/03/16 12:39:54;;;;;;;;;;;;;;;;;;5027447;28;20441;-69
2022/03/16 12:42:32;;;;;;;36.20;19.73;;;;;;;;;;5021692;28;19933;-69
2022/03/16 12:45:09;;;;;;;37.55;20.33;;;;;;;;;;5026518;28;20116;-69
2022/03/16 12:47:40;;;;;;;36.88;20.40;;;;;;;;;;5026848;28;20037;-70
2022/03/16 12:50:10;;;;;;;35.58;19.77;;;;;;;;;;5013227;28;20113;-70
2022/03/16 12:52:37;;;;;;;34.63;19.90;;;;;;;;;;5027615;28;20056;-70
2022/03/16 12:55:09;;;;;;;36.10;18.98;;;;;;;;;;5026857;28;20064;-70
2022/03/16 12:57:35;;;;;;;32.30;18.85;;;;;;;;;;5026422;28;20128;-70
2022/03/16 13:00:05;;;;;;;;;;;;;;;;;;5027368;28;20604;-70
2022/03/16 13:02:34;;;;;;;30.25;18.33;;;;;;;;;;5025517;28;19955;-70
2022/03/16 13:05:01;;;;;;;38.20;22.65;;;;;;;;;;5026375;28;20037;-69
2022/03/16 13:07:27;;;;;;;31.20;18.33;;;;;;;;;;5026163;28;20049;-68
2022/03/16 13:09:54;;;;;;;36.33;19.30;;;;;;;;;;5026924;28;20033;-67
2022/03/16 13:12:22;;;;;;;32.38;19.48;;;;;;;;;;5026285;28;20124;-68
2022/03/16 13:14:48;;;;;;;30.88;18.25;;;;;;;;;;5025932;28;20037;-67
2022/03/16 13:17:15;;;;;;;33.83;18.73;;;;;;;;;;5026188;28;20060;-64
2022/03/16 13:19:44;;;;;;;36.20;18.83;;;;;;;;;;5026444;28;20045;-68
2022/03/16 13:22:17;;;;;;;34.10;19.40;;;;;;;;;;5026111;28;20117;-68
2022/03/16 13:24:57;;;;;;;35.53;19.23;;;;;;;;;;5026073;28;20056;-68
2022/03/16 13:27:25;;;;;;;29.35;19.10;;;;;;;;;;5025396;28;20049;-69
2022/03/16 13:29:54;;;;;;;32.03;19.73;;;;;;;;;;5025874;28;20045;-68
2022/03/16 13:32:26;;;;;;;32.55;19.45;;;;;;;;;;5025483;28;20038;-69
2022/03/16 13:34:52;;;;;;;31.58;18.92;;;;;;;;;;5026090;28;20041;-69
2022/03/16 13:37:29;;;;;;;34.40;20.02;;;;;;;;;;5025741;28;20048;-68
2022/03/16 13:39:56;;;;;;;34.50;20.38;;;;;;;;;;5026190;28;20103;-67
2022/03/16 13:42:26;;;;;;;34.78;19.85;;;;;;;;;;5023703;28;20132;-69
2022/03/16 13:44:53;;;;;;;33.63;19.38;;;;;;;;;;5019795;28;20083;-69
2022/03/16 13:47:20;;;;;;;31.42;19.05;;;;;;;;;;5025833;28;20438;-68
2022/03/16 13:49:50;;;;;;;34.00;18.80;;;;;;;;;;5025997;28;20045;-69
2022/03/16 13:52:19;;;;;;;34.25;18.38;;;;;;;;;;5025824;28;20443;-69
2022/03/16 13:54:45;;;;;;;31.25;18.90;;;;;;;;;;5025072;28;20041;-68
2022/03/16 13:57:15;;;;;;;35.00;19.67;;;;;;;;;;5024630;28;20053;-68
2022/03/16 13:59:42;;;;;;;30.88;17.80;;;;;;;;;;5008289;28;20623;-68
2022/03/16 14:02:12;;;;;;;34.17;18.73;;;;;;;;;;5024466;28;20037;-68
2022/03/16 14:04:42;;;;;;;27.40;17.08;;;;;;;;;;5025333;28;20045;-68
2022/03/16 14:07:23;;;;;;;27.38;17.50;;;;;;;;;;5024714;28;20113;-68
2022/03/16 14:09:53;;;;;;;27.90;16.50;;;;;;;;;;5024154;28;20045;-68
2022/03/16 14:12:19;;;;;;;32.88;18.48;;;;;;;;;;5025173;28;20119;-68
2022/03/16 14:14:46;;;;;;;36.20;18.08;;;;;;;;;;5024061;28;20061;-68
2022/03/16 14:17:12;;;;;;;29.55;17.88;;;;;;;;;;5024991;28;20044;-68
2022/03/16 14:19:45;;;;;;;32.90;18.77;;;;;;;;;;5025347;28;20556;-68
2022/03/16 14:22:15;;;;;;;28.17;18.10;;;;;;;;;;5024386;28;20052;-68
2022/03/16 14:24:42;;;;;;;29.17;17.23;;;;;;;;;;5023644;28;20060;-68
2022/03/16 14:27:26;;;;;;;31.67;18.13;;;;;;;;;;5022926;28;20038;-69
2022/03/16 14:29:52;;;;;;;33.50;19.50;;;;;;;;;;5025042;28;20045;-68
2022/03/16 14:32:20;;;;;;;31.67;19.10;;;;;;;;;;5023914;28;20948;-69
2022/03/16 14:34:47;;;;;;;28.50;16.35;;;;;;;;;;5024557;28;20106;-69
2022/03/16 14:37:13;;;;;;;31.80;17.58;;;;;;;;;;5024429;28;20052;-69
2022/03/16 14:39:39;;;;;;;32.30;18.92;;;;;;;;;;5005733;28;20069;-69
2022/03/16 14:42:06;;;;;;;33.13;17.55;;;;;;;;;;5023379;28;20087;-69